sensor_id;sensor_type;location;lat;lon;timestamp;pressure;altitude;pressure_sealevel;temperature;humidity
4745;BME280;2386;42.138;24.746;2022-12-19T05:55:14;101714.59;;;6.71;100.00
4745;BME280;2386;42.138;24.746;2022-12-19T05:57:40;101712.00;;;6.62;100.00
4745;BME280;2386;42.138;24.746;2022-12-19T06:33:40;101745.72;;;7.01;97.04
4745;BME280;2386;42.138;24.746;2022-12-19T06:36:11;101765.22;;;7.13;94.78
4745;BME280;2386;42.138;24.746;2022-12-19T06:38:37;101763.13;;;7.24;94.81
4745;BME280;2386;42.138;24.746;2022-12-19T06:41:25;101765.81;;;7.42;94.02
4745;BME280;2386;42.138;24.746;2022-12-19T06:47:12;101772.63;;;7.29;94.08
4745;BME280;2386;42.138;24.746;2022-12-19T06:49:41;101771.69;;;7.38;94.56
4745;BME280;2386;42.138;24.746;2022-12-19T07:21:21;101804.66;;;7.49;89.19
4745;BME280;2386;42.138;24.746;2022-12-19T07:23:47;101810.38;;;7.72;88.33
4745;BME280;2386;42.138;24.746;2022-12-19T07:26:13;101812.53;;;7.43;88.11
4745;BME280;2386;42.138;24.746;2022-12-19T07:28:38;101809.88;;;7.51;90.38
4745;BME280;2386;42.138;24.746;2022-12-19T07:31:04;101820.34;;;7.72;88.61
4745;BME280;2386;42.138;24.746;2022-12-19T07:33:30;101819.34;;;7.73;88.23
4745;BME280;2386;42.138;24.746;2022-12-19T07:35:55;101833.38;;;7.76;88.62
4745;BME280;2386;42.138;24.746;2022-12-19T07:38:20;101830.25;;;7.63;87.35
4745;BME280;2386;42.138;24.746;2022-12-19T07:40:46;101830.94;;;7.65;87.85
4745;BME280;2386;42.138;24.746;2022-12-19T07:43:12;101826.75;;;7.71;87.47
4745;BME280;2386;42.138;24.746;2022-12-19T07:45:38;101831.25;;;7.62;85.79
4745;BME280;2386;42.138;24.746;2022-12-19T07:48:06;101833.97;;;7.88;85.22
4745;BME280;2386;42.138;24.746;2022-12-19T07:50:32;101833.75;;;7.81;85.08
4745;BME280;2386;42.138;24.746;2022-12-19T07:52:58;101840.91;;;7.90;84.10
4745;BME280;2386;42.138;24.746;2022-12-19T07:55:24;101835.78;;;8.05;82.59
4745;BME280;2386;42.138;24.746;2022-12-19T07:57:50;101843.09;;;7.87;82.71
4745;BME280;2386;42.138;24.746;2022-12-19T08:00:16;101845.69;;;7.97;82.16
4745;BME280;2386;42.138;24.746;2022-12-19T08:02:41;101844.72;;;8.06;81.93
4745;BME280;2386;42.138;24.746;2022-12-19T08:05:07;101845.78;;;8.13;81.76
4745;BME280;2386;42.138;24.746;2022-12-19T08:07:32;101856.59;;;8.13;81.43
4745;BME280;2386;42.138;24.746;2022-12-19T08:09:58;101861.63;;;8.08;82.21
4745;BME280;2386;42.138;24.746;2022-12-19T08:12:23;101856.28;;;8.16;81.60
4745;BME280;2386;42.138;24.746;2022-12-19T08:14:49;101858.88;;;8.00;84.25
4745;BME280;2386;42.138;24.746;2022-12-19T08:17:14;101857.13;;;8.16;82.42
4745;BME280;2386;42.138;24.746;2022-12-19T08:19:40;101868.78;;;8.17;81.63
4745;BME280;2386;42.138;24.746;2022-12-19T08:22:05;101865.91;;;7.93;82.91
4745;BME280;2386;42.138;24.746;2022-12-19T08:24:31;101868.69;;;8.01;82.92
4745;BME280;2386;42.138;24.746;2022-12-19T08:27:03;101871.19;;;7.76;79.64
4745;BME280;2386;42.138;24.746;2022-12-19T08:29:29;101864.09;;;7.75;79.17
4745;BME280;2386;42.138;24.746;2022-12-19T08:31:54;101867.81;;;7.74;80.70
4745;BME280;2386;42.138;24.746;2022-12-19T08:34:19;101865.53;;;7.87;79.34
4745;BME280;2386;42.138;24.746;2022-12-19T08:36:48;101871.00;;;7.96;78.88
4745;BME280;2386;42.138;24.746;2022-12-19T08:39:14;101882.38;;;7.81;78.57
4745;BME280;2386;42.138;24.746;2022-12-19T08:41:45;101880.97;;;7.95;79.60
4745;BME280;2386;42.138;24.746;2022-12-19T08:44:13;101879.34;;;8.02;78.91
4745;BME280;2386;42.138;24.746;2022-12-19T08:46:40;101882.31;;;7.73;78.28
4745;BME280;2386;42.138;24.746;2022-12-19T08:49:06;101882.00;;;7.76;79.75
4745;BME280;2386;42.138;24.746;2022-12-19T08:51:31;101891.69;;;8.05;78.23
4745;BME280;2386;42.138;24.746;2022-12-19T08:53:57;101882.25;;;8.09;76.74
4745;BME280;2386;42.138;24.746;2022-12-19T08:56:22;101883.19;;;8.00;78.07
4745;BME280;2386;42.138;24.746;2022-12-19T08:58:50;101878.91;;;8.15;78.63
4745;BME280;2386;42.138;24.746;2022-12-19T09:01:18;101878.69;;;8.08;79.00
4745;BME280;2386;42.138;24.746;2022-12-19T09:03:43;101874.28;;;8.33;78.25
4745;BME280;2386;42.138;24.746;2022-12-19T09:06:10;101882.09;;;8.36;78.58
4745;BME280;2386;42.138;24.746;2022-12-19T09:08:36;101881.09;;;8.19;78.87
4745;BME280;2386;42.138;24.746;2022-12-19T09:14:24;101870.84;;;8.49;74.01
4745;BME280;2386;42.138;24.746;2022-12-19T09:16:49;101859.44;;;8.37;76.92
4745;BME280;2386;42.138;24.746;2022-12-19T09:19:15;101870.66;;;8.24;77.03
4745;BME280;2386;42.138;24.746;2022-12-19T09:21:41;101858.34;;;8.30;75.38
4745;BME280;2386;42.138;24.746;2022-12-19T09:24:08;101873.91;;;8.28;76.35
4745;BME280;2386;42.138;24.746;2022-12-19T09:26:35;101881.69;;;8.31;74.16
4745;BME280;2386;42.138;24.746;2022-12-19T09:29:03;101874.34;;;8.15;75.64
4745;BME280;2386;42.138;24.746;2022-12-19T09:31:28;101868.88;;;8.33;75.94
4745;BME280;2386;42.138;24.746;2022-12-19T09:33:54;101871.63;;;8.41;73.64
4745;BME280;2386;42.138;24.746;2022-12-19T09:36:21;101867.16;;;8.32;76.65
4745;BME280;2386;42.138;24.746;2022-12-19T09:38:49;101855.28;;;8.25;75.32
4745;BME280;2386;42.138;24.746;2022-12-19T09:49:27;101852.53;;;8.09;78.16
4745;BME280;2386;42.138;24.746;2022-12-19T09:52:12;101851.56;;;8.26;74.02
4745;BME280;2386;42.138;24.746;2022-12-19T09:54:56;101836.34;;;8.17;73.47
4745;BME280;2386;42.138;24.746;2022-12-19T09:57:50;101842.13;;;8.30;76.80
4745;BME280;2386;42.138;24.746;2022-12-19T10:00:20;101851.84;;;8.41;75.76
4745;BME280;2386;42.138;24.746;2022-12-19T10:02:56;101839.38;;;8.48;72.65
4745;BME280;2386;42.138;24.746;2022-12-19T10:05:39;101837.28;;;8.34;70.64
4745;BME280;2386;42.138;24.746;2022-12-19T10:08:49;101842.25;;;8.46;70.30
4745;BME280;2386;42.138;24.746;2022-12-19T10:20:27;101820.97;;;8.51;72.23
4745;BME280;2386;42.138;24.746;2022-12-19T10:34:01;101797.28;;;8.45;72.48
4745;BME280;2386;42.138;24.746;2022-12-19T10:36:41;101798.25;;;8.36;67.67
4745;BME280;2386;42.138;24.746;2022-12-19T10:39:15;101791.78;;;8.29;68.29
4745;BME280;2386;42.138;24.746;2022-12-19T10:41:55;101796.41;;;8.37;66.22
4745;BME280;2386;42.138;24.746;2022-12-19T10:44:35;101787.44;;;8.36;67.52
4745;BME280;2386;42.138;24.746;2022-12-19T10:47:03;101791.56;;;8.48;69.33
4745;BME280;2386;42.138;24.746;2022-12-19T10:49:30;101796.97;;;8.48;69.24
4745;BME280;2386;42.138;24.746;2022-12-19T10:52:07;101788.19;;;8.54;70.33
4745;BME280;2386;42.138;24.746;2022-12-19T10:54:37;101787.34;;;8.54;70.96
4745;BME280;2386;42.138;24.746;2022-12-19T10:57:26;101765.22;;;8.59;71.72
4745;BME280;2386;42.138;24.746;2022-12-19T11:00:18;101780.28;;;8.61;73.39
4745;BME280;2386;42.138;24.746;2022-12-19T11:03:13;101792.72;;;8.46;73.23
4745;BME280;2386;42.138;24.746;2022-12-19T11:05:59;101793.59;;;8.54;70.42
4745;BME280;2386;42.138;24.746;2022-12-19T11:08:30;101789.84;;;8.47;71.08
4745;BME280;2386;42.138;24.746;2022-12-19T11:11:09;101790.53;;;8.49;72.24
4745;BME280;2386;42.138;24.746;2022-12-19T11:16:03;101782.09;;;8.52;68.68
4745;BME280;2386;42.138;24.746;2022-12-19T11:18:35;101778.00;;;8.40;69.70
4745;BME280;2386;42.138;24.746;2022-12-19T11:21:28;101778.41;;;8.28;71.45
4745;BME280;2386;42.138;24.746;2022-12-19T11:23:59;101781.72;;;8.39;69.34
4745;BME280;2386;42.138;24.746;2022-12-19T11:29:20;101780.91;;;8.47;67.00
4745;BME280;2386;42.138;24.746;2022-12-19T11:31:45;101773.50;;;8.65;64.93
4745;BME280;2386;42.138;24.746;2022-12-19T11:34:16;101771.31;;;8.69;63.51
4745;BME280;2386;42.138;24.746;2022-12-19T11:39:25;101764.84;;;8.45;64.43
4745;BME280;2386;42.138;24.746;2022-12-19T11:42:06;101760.00;;;8.65;64.00
4745;BME280;2386;42.138;24.746;2022-12-19T11:44:58;101750.19;;;8.72;64.27
4745;BME280;2386;42.138;24.746;2022-12-19T11:47:39;101759.63;;;8.52;61.94
4745;BME280;2386;42.138;24.746;2022-12-19T11:50:17;101749.84;;;8.59;58.46
4745;BME280;2386;42.138;24.746;2022-12-19T11:53:21;101761.50;;;8.60;63.37
4745;BME280;2386;42.138;24.746;2022-12-19T11:55:45;101748.50;;;8.71;61.51
4745;BME280;2386;42.138;24.746;2022-12-19T12:11:50;101761.44;;;8.01;66.49
4745;BME280;2386;42.138;24.746;2022-12-19T12:14:21;101760.97;;;8.14;67.46
4745;BME280;2386;42.138;24.746;2022-12-19T12:17:03;101764.75;;;8.29;64.21
4745;BME280;2386;42.138;24.746;2022-12-19T12:22:19;101767.84;;;8.34;58.96
4745;BME280;2386;42.138;24.746;2022-12-19T12:24:56;101763.72;;;8.30;58.08
4745;BME280;2386;42.138;24.746;2022-12-19T12:30:11;101775.94;;;8.34;58.81
4745;BME280;2386;42.138;24.746;2022-12-19T12:44:06;101785.47;;;8.12;54.41
4745;BME280;2386;42.138;24.746;2022-12-19T12:46:46;101783.91;;;8.02;55.04
4745;BME280;2386;42.138;24.746;2022-12-19T12:49:44;101785.88;;;7.91;55.65
4745;BME280;2386;42.138;24.746;2022-12-19T12:52:18;101789.84;;;7.79;57.90
4745;BME280;2386;42.138;24.746;2022-12-19T12:54:47;101782.16;;;7.93;53.68
4745;BME280;2386;42.138;24.746;2022-12-19T12:57:35;101788.34;;;7.85;55.28
4745;BME280;2386;42.138;24.746;2022-12-19T13:43:07;101810.16;;;7.40;57.50
4745;BME280;2386;42.138;24.746;2022-12-19T14:33:43;101836.84;;;7.25;58.55
4745;BME280;2386;42.138;24.746;2022-12-19T14:36:10;101845.66;;;7.09;60.16
4745;BME280;2386;42.138;24.746;2022-12-19T14:38:36;101827.28;;;6.95;62.13
4745;BME280;2386;42.138;24.746;2022-12-19T14:41:03;101838.25;;;7.11;61.67
4745;BME280;2386;42.138;24.746;2022-12-19T14:43:30;101831.81;;;6.95;64.24
4745;BME280;2386;42.138;24.746;2022-12-19T14:46:26;101839.47;;;6.99;63.23
4745;BME280;2386;42.138;24.746;2022-12-19T14:49:00;101836.69;;;6.91;65.39
4745;BME280;2386;42.138;24.746;2022-12-19T14:51:36;101854.88;;;6.89;65.07
4745;BME280;2386;42.138;24.746;2022-12-19T15:04:48;101858.91;;;6.75;66.34
4745;BME280;2386;42.138;24.746;2022-12-19T15:07:27;101869.16;;;6.72;68.98
4745;BME280;2386;42.138;24.746;2022-12-19T15:12:31;101866.09;;;6.84;68.12
4745;BME280;2386;42.138;24.746;2022-12-19T15:15:20;101856.66;;;6.71;67.05
4745;BME280;2386;42.138;24.746;2022-12-19T15:17:52;101861.16;;;6.80;68.63
4745;BME280;2386;42.138;24.746;2022-12-19T15:20:18;101862.47;;;6.76;67.06
4745;BME280;2386;42.138;24.746;2022-12-19T15:22:43;101839.66;;;6.70;66.87
4745;BME280;2386;42.138;24.746;2022-12-19T15:25:12;101851.47;;;6.87;65.86
4745;BME280;2386;42.138;24.746;2022-12-19T15:27:44;101837.28;;;6.85;66.84
4745;BME280;2386;42.138;24.746;2022-12-19T15:30:19;101832.19;;;6.82;66.35
4745;BME280;2386;42.138;24.746;2022-12-19T15:32:48;101850.25;;;6.99;66.11
4745;BME280;2386;42.138;24.746;2022-12-19T15:35:18;101831.09;;;6.75;67.72
4745;BME280;2386;42.138;24.746;2022-12-19T15:38:01;101849.25;;;6.55;68.89
4745;BME280;2386;42.138;24.746;2022-12-19T15:43:51;101846.69;;;6.81;67.33
4745;BME280;2386;42.138;24.746;2022-12-19T15:46:24;101825.41;;;6.60;68.81
4745;BME280;2386;42.138;24.746;2022-12-19T15:48:56;101848.06;;;6.85;67.70
4745;BME280;2386;42.138;24.746;2022-12-19T15:51:49;101841.97;;;6.83;66.79
4745;BME280;2386;42.138;24.746;2022-12-19T15:54:19;101834.22;;;6.52;67.70
4745;BME280;2386;42.138;24.746;2022-12-19T16:00:27;101851.16;;;6.45;69.88
4745;BME280;2386;42.138;24.746;2022-12-19T16:03:01;101846.03;;;6.51;69.09
4745;BME280;2386;42.138;24.746;2022-12-19T16:05:27;101860.56;;;6.31;68.37
4745;BME280;2386;42.138;24.746;2022-12-19T16:07:53;101845.84;;;6.25;67.91
4745;BME280;2386;42.138;24.746;2022-12-19T16:10:22;101865.78;;;6.42;69.47
4745;BME280;2386;42.138;24.746;2022-12-19T16:12:53;101850.50;;;6.33;69.54
4745;BME280;2386;42.138;24.746;2022-12-19T16:15:28;101870.50;;;6.68;66.64
4745;BME280;2386;42.138;24.746;2022-12-19T16:17:55;101869.78;;;6.66;68.35
4745;BME280;2386;42.138;24.746;2022-12-19T16:20:23;101874.69;;;6.70;67.41
4745;BME280;2386;42.138;24.746;2022-12-19T16:22:49;101862.91;;;6.53;69.37
4745;BME280;2386;42.138;24.746;2022-12-19T16:25:21;101872.25;;;6.77;70.07
4745;BME280;2386;42.138;24.746;2022-12-19T16:27:55;101870.97;;;6.53;68.35
4745;BME280;2386;42.138;24.746;2022-12-19T16:30:30;101856.59;;;6.35;69.21
4745;BME280;2386;42.138;24.746;2022-12-19T16:32:56;101864.84;;;6.24;70.80
4745;BME280;2386;42.138;24.746;2022-12-19T16:35:23;101869.66;;;6.30;72.97
4745;BME280;2386;42.138;24.746;2022-12-19T16:37:50;101874.88;;;6.41;71.20
4745;BME280;2386;42.138;24.746;2022-12-19T16:40:18;101875.16;;;6.38;70.24
4745;BME280;2386;42.138;24.746;2022-12-19T16:43:16;101866.44;;;6.17;69.44
4745;BME280;2386;42.138;24.746;2022-12-19T16:45:51;101868.41;;;6.24;71.33
4745;BME280;2386;42.138;24.746;2022-12-19T16:48:42;101873.47;;;6.37;72.67
4745;BME280;2386;42.138;24.746;2022-12-19T16:54:24;101879.94;;;6.72;68.76
4745;BME280;2386;42.138;24.746;2022-12-19T16:56:56;101876.88;;;6.67;68.81
4745;BME280;2386;42.138;24.746;2022-12-19T16:59:36;101863.00;;;6.62;67.61
4745;BME280;2386;42.138;24.746;2022-12-19T17:02:34;101888.34;;;6.69;67.92
4745;BME280;2386;42.138;24.746;2022-12-19T17:05:04;101874.09;;;6.58;68.17
4745;BME280;2386;42.138;24.746;2022-12-19T17:07:31;101888.03;;;6.44;68.19
4745;BME280;2386;42.138;24.746;2022-12-19T17:10:01;101884.50;;;6.44;69.00
4745;BME280;2386;42.138;24.746;2022-12-19T17:12:28;101887.53;;;6.31;69.61
4745;BME280;2386;42.138;24.746;2022-12-19T17:14:57;101882.69;;;6.35;69.59
4745;BME280;2386;42.138;24.746;2022-12-19T17:17:22;101886.97;;;6.28;69.96
4745;BME280;2386;42.138;24.746;2022-12-19T17:19:49;101886.38;;;6.34;69.66
4745;BME280;2386;42.138;24.746;2022-12-19T17:25:38;101892.66;;;6.24;70.38
4745;BME280;2386;42.138;24.746;2022-12-19T17:28:04;101892.50;;;6.26;70.22
4745;BME280;2386;42.138;24.746;2022-12-19T17:30:30;101886.13;;;6.27;69.50
4745;BME280;2386;42.138;24.746;2022-12-19T17:32:56;101901.50;;;6.54;68.37
4745;BME280;2386;42.138;24.746;2022-12-19T17:35:26;101896.59;;;6.30;70.97
4745;BME280;2386;42.138;24.746;2022-12-19T17:37:55;101880.63;;;6.19;70.65
4745;BME280;2386;42.138;24.746;2022-12-19T17:43:44;101885.72;;;6.22;71.65
4745;BME280;2386;42.138;24.746;2022-12-19T17:46:29;101891.34;;;5.91;72.99
4745;BME280;2386;42.138;24.746;2022-12-19T17:48:55;101883.66;;;5.87;73.13
4745;BME280;2386;42.138;24.746;2022-12-19T17:51:21;101893.72;;;5.85;74.82
4745;BME280;2386;42.138;24.746;2022-12-19T17:53:47;101885.09;;;5.81;73.74
4745;BME280;2386;42.138;24.746;2022-12-19T17:56:17;101903.22;;;5.79;74.96
4745;BME280;2386;42.138;24.746;2022-12-19T17:58:43;101890.47;;;5.72;75.16
4745;BME280;2386;42.138;24.746;2022-12-19T18:01:20;101913.28;;;5.97;73.24
4745;BME280;2386;42.138;24.746;2022-12-19T18:03:49;101912.00;;;5.81;75.04
4745;BME280;2386;42.138;24.746;2022-12-19T18:06:15;101908.63;;;5.70;74.61
4745;BME280;2386;42.138;24.746;2022-12-19T18:08:41;101895.03;;;5.52;76.69
4745;BME280;2386;42.138;24.746;2022-12-19T18:11:20;101897.84;;;5.41;75.12
4745;BME280;2386;42.138;24.746;2022-12-19T18:13:46;101916.13;;;5.37;77.24
4745;BME280;2386;42.138;24.746;2022-12-19T18:16:15;101913.97;;;5.12;77.28
4745;BME280;2386;42.138;24.746;2022-12-19T18:18:42;101906.63;;;5.14;78.96
4745;BME280;2386;42.138;24.746;2022-12-19T18:21:12;101919.22;;;5.13;78.29
4745;BME280;2386;42.138;24.746;2022-12-19T18:23:39;101906.16;;;4.99;79.08
4745;BME280;2386;42.138;24.746;2022-12-19T18:26:05;101924.59;;;5.13;78.86
4745;BME280;2386;42.138;24.746;2022-12-19T18:28:31;101901.94;;;5.06;79.38
4745;BME280;2386;42.138;24.746;2022-12-19T18:30:59;101907.44;;;4.95;80.61
4745;BME280;2386;42.138;24.746;2022-12-19T18:33:27;101916.59;;;4.83;82.84
4745;BME280;2386;42.138;24.746;2022-12-19T18:35:59;101910.03;;;4.66;82.83
4745;BME280;2386;42.138;24.746;2022-12-19T18:38:24;101909.44;;;4.62;82.33
4745;BME280;2386;42.138;24.746;2022-12-19T18:40:52;101915.88;;;4.81;82.05
4745;BME280;2386;42.138;24.746;2022-12-19T18:43:18;101910.44;;;4.61;82.52
4745;BME280;2386;42.138;24.746;2022-12-19T18:45:47;101906.00;;;4.51;83.94
4745;BME280;2386;42.138;24.746;2022-12-19T18:48:21;101913.22;;;4.50;85.01
4745;BME280;2386;42.138;24.746;2022-12-19T18:50:47;101926.56;;;4.61;84.59
4745;BME280;2386;42.138;24.746;2022-12-19T18:53:15;101904.16;;;4.42;84.12
4745;BME280;2386;42.138;24.746;2022-12-19T18:55:41;101921.47;;;4.58;83.24
4745;BME280;2386;42.138;24.746;2022-12-19T18:58:08;101929.69;;;4.67;82.64
4745;BME280;2386;42.138;24.746;2022-12-19T19:03:56;101922.69;;;4.45;82.22
4745;BME280;2386;42.138;24.746;2022-12-19T19:06:28;101918.72;;;4.49;80.97
4745;BME280;2386;42.138;24.746;2022-12-19T19:08:55;101927.63;;;4.49;81.46
4745;BME280;2386;42.138;24.746;2022-12-19T19:14:42;101925.66;;;4.51;79.02
4745;BME280;2386;42.138;24.746;2022-12-19T19:17:16;101921.03;;;4.63;77.45
4745;BME280;2386;42.138;24.746;2022-12-19T19:19:46;101926.06;;;4.37;77.73
4745;BME280;2386;42.138;24.746;2022-12-19T19:25:33;101919.16;;;4.54;75.37
4745;BME280;2386;42.138;24.746;2022-12-19T19:28:00;101932.44;;;4.46;77.54
4745;BME280;2386;42.138;24.746;2022-12-19T19:30:26;101916.41;;;4.35;77.15
4745;BME280;2386;42.138;24.746;2022-12-19T19:32:58;101936.97;;;4.45;74.69
4745;BME280;2386;42.138;24.746;2022-12-19T19:35:26;101926.97;;;4.26;75.45
4745;BME280;2386;42.138;24.746;2022-12-19T19:37:53;101930.03;;;4.43;74.50
4745;BME280;2386;42.138;24.746;2022-12-19T19:40:20;101930.66;;;4.25;74.83
4745;BME280;2386;42.138;24.746;2022-12-19T19:42:46;101934.97;;;4.38;74.45
4745;BME280;2386;42.138;24.746;2022-12-19T19:45:11;101942.78;;;4.20;75.24
4745;BME280;2386;42.138;24.746;2022-12-19T19:47:37;101922.66;;;4.14;77.46
4745;BME280;2386;42.138;24.746;2022-12-19T19:50:05;101930.13;;;4.11;76.83
4745;BME280;2386;42.138;24.746;2022-12-19T19:52:31;101936.06;;;4.35;75.56
4745;BME280;2386;42.138;24.746;2022-12-19T19:54:57;101927.31;;;4.12;76.00
4745;BME280;2386;42.138;24.746;2022-12-19T19:57:24;101924.38;;;4.15;76.96
4745;BME280;2386;42.138;24.746;2022-12-19T19:59:50;101918.41;;;4.12;77.03
4745;BME280;2386;42.138;24.746;2022-12-19T20:02:16;101930.84;;;4.13;77.47
4745;BME280;2386;42.138;24.746;2022-12-19T20:04:41;101923.13;;;3.99;79.15
4745;BME280;2386;42.138;24.746;2022-12-19T20:07:07;101924.75;;;3.90;80.15
4745;BME280;2386;42.138;24.746;2022-12-19T20:09:33;101928.97;;;4.04;79.44
4745;BME280;2386;42.138;24.746;2022-12-19T20:11:58;101920.00;;;3.93;79.98
4745;BME280;2386;42.138;24.746;2022-12-19T20:14:24;101920.91;;;3.83;80.62
4745;BME280;2386;42.138;24.746;2022-12-19T20:16:51;101934.91;;;3.86;81.08
4745;BME280;2386;42.138;24.746;2022-12-19T20:19:16;101927.38;;;4.01;80.73
4745;BME280;2386;42.138;24.746;2022-12-19T20:25:03;101931.31;;;3.97;81.62
4745;BME280;2386;42.138;24.746;2022-12-19T20:27:29;101926.84;;;3.86;80.87
4745;BME280;2386;42.138;24.746;2022-12-19T20:29:54;101929.47;;;3.77;81.26
4745;BME280;2386;42.138;24.746;2022-12-19T20:32:20;101934.97;;;3.75;81.12
4745;BME280;2386;42.138;24.746;2022-12-19T20:34:46;101945.84;;;3.94;80.79
4745;BME280;2386;42.138;24.746;2022-12-19T20:37:11;101941.91;;;3.78;81.50
4745;BME280;2386;42.138;24.746;2022-12-19T20:39:36;101931.97;;;3.89;81.12
4745;BME280;2386;42.138;24.746;2022-12-19T20:42:02;101941.47;;;3.93;81.14
4745;BME280;2386;42.138;24.746;2022-12-19T20:44:30;101941.53;;;3.82;80.73
4745;BME280;2386;42.138;24.746;2022-12-19T20:46:55;101945.53;;;3.67;83.41
4745;BME280;2386;42.138;24.746;2022-12-19T20:49:22;101946.56;;;3.96;79.40
4745;BME280;2386;42.138;24.746;2022-12-19T20:51:47;101941.06;;;3.77;80.69
4745;BME280;2386;42.138;24.746;2022-12-19T20:54:13;101952.91;;;3.54;83.39
4745;BME280;2386;42.138;24.746;2022-12-19T20:56:40;101957.28;;;3.55;83.54
4745;BME280;2386;42.138;24.746;2022-12-19T20:59:05;101958.75;;;3.48;83.36
4745;BME280;2386;42.138;24.746;2022-12-19T21:01:31;101963.41;;;3.46;84.08
4745;BME280;2386;42.138;24.746;2022-12-19T21:03:57;101959.03;;;3.45;83.71
4745;BME280;2386;42.138;24.746;2022-12-19T21:06:23;101953.44;;;3.37;83.42
4745;BME280;2386;42.138;24.746;2022-12-19T21:08:52;101947.22;;;3.36;83.15
4745;BME280;2386;42.138;24.746;2022-12-19T21:11:18;101957.91;;;3.47;84.13
4745;BME280;2386;42.138;24.746;2022-12-19T21:13:44;101962.53;;;3.56;82.84
4745;BME280;2386;42.138;24.746;2022-12-19T21:16:16;101945.34;;;3.48;81.55
4745;BME280;2386;42.138;24.746;2022-12-19T21:18:43;101950.50;;;3.40;81.30
4745;BME280;2386;42.138;24.746;2022-12-19T21:21:13;101949.66;;;3.39;81.61
4745;BME280;2386;42.138;24.746;2022-12-19T21:23:40;101960.69;;;3.57;79.70
4745;BME280;2386;42.138;24.746;2022-12-19T21:26:05;101943.53;;;3.48;78.92
4745;BME280;2386;42.138;24.746;2022-12-19T21:28:31;101943.91;;;3.44;78.95
4745;BME280;2386;42.138;24.746;2022-12-19T21:31:02;101949.88;;;3.47;78.04
4745;BME280;2386;42.138;24.746;2022-12-19T21:33:28;101937.09;;;3.40;77.89
4745;BME280;2386;42.138;24.746;2022-12-19T21:35:54;101931.94;;;3.48;76.65
4745;BME280;2386;42.138;24.746;2022-12-19T21:38:20;101935.81;;;3.55;76.72
4745;BME280;2386;42.138;24.746;2022-12-19T21:40:45;101931.09;;;3.47;76.67
4745;BME280;2386;42.138;24.746;2022-12-19T21:43:11;101927.47;;;3.37;76.51
4745;BME280;2386;42.138;24.746;2022-12-19T21:45:36;101934.38;;;3.51;76.03
4745;BME280;2386;42.138;24.746;2022-12-19T21:48:02;101923.69;;;3.40;77.45
4745;BME280;2386;42.138;24.746;2022-12-19T21:50:27;101922.91;;;3.49;75.83
4745;BME280;2386;42.138;24.746;2022-12-19T21:52:52;101931.47;;;3.43;73.68
4745;BME280;2386;42.138;24.746;2022-12-19T21:55:18;101930.56;;;3.53;73.80
4745;BME280;2386;42.138;24.746;2022-12-19T21:57:43;101919.81;;;3.33;75.36
4745;BME280;2386;42.138;24.746;2022-12-19T22:00:10;101933.56;;;3.39;74.42
4745;BME280;2386;42.138;24.746;2022-12-19T22:02:36;101926.88;;;3.66;72.67
4745;BME280;2386;42.138;24.746;2022-12-19T22:05:02;101927.00;;;3.64;71.44
4745;BME280;2386;42.138;24.746;2022-12-19T22:10:50;101920.97;;;3.51;72.17
4745;BME280;2386;42.138;24.746;2022-12-19T22:13:15;101920.31;;;3.58;70.75
4745;BME280;2386;42.138;24.746;2022-12-19T22:15:40;101919.78;;;3.65;70.41
4745;BME280;2386;42.138;24.746;2022-12-19T22:18:06;101917.84;;;3.35;72.60
4745;BME280;2386;42.138;24.746;2022-12-19T22:20:31;101930.38;;;3.45;74.13
4745;BME280;2386;42.138;24.746;2022-12-19T22:22:57;101924.66;;;3.39;74.12
4745;BME280;2386;42.138;24.746;2022-12-19T22:25:22;101929.31;;;3.25;74.55
4745;BME280;2386;42.138;24.746;2022-12-19T22:27:47;101924.44;;;3.30;75.12
4745;BME280;2386;42.138;24.746;2022-12-19T22:30:13;101921.41;;;3.24;75.16
4745;BME280;2386;42.138;24.746;2022-12-19T22:32:40;101917.28;;;3.20;76.92
4745;BME280;2386;42.138;24.746;2022-12-19T22:35:05;101916.31;;;3.21;76.02
4745;BME280;2386;42.138;24.746;2022-12-19T22:37:31;101925.91;;;3.23;75.97
4745;BME280;2386;42.138;24.746;2022-12-19T22:39:56;101901.56;;;3.15;76.79
4745;BME280;2386;42.138;24.746;2022-12-19T22:42:26;101901.81;;;3.12;77.42
4745;BME280;2386;42.138;24.746;2022-12-19T22:44:51;101902.75;;;3.22;75.50
4745;BME280;2386;42.138;24.746;2022-12-19T22:47:17;101905.47;;;3.11;76.60
4745;BME280;2386;42.138;24.746;2022-12-19T22:49:42;101908.53;;;3.07;76.40
4745;BME280;2386;42.138;24.746;2022-12-19T22:52:07;101895.72;;;3.10;75.48
4745;BME280;2386;42.138;24.746;2022-12-19T22:54:33;101905.38;;;3.02;76.66
4745;BME280;2386;42.138;24.746;2022-12-19T22:56:58;101901.06;;;2.89;77.30
4745;BME280;2386;42.138;24.746;2022-12-19T22:59:24;101896.78;;;2.87;77.60
4745;BME280;2386;42.138;24.746;2022-12-19T23:01:49;101883.16;;;2.79;79.54
4745;BME280;2386;42.138;24.746;2022-12-19T23:04:14;101888.16;;;2.83;77.65
4745;BME280;2386;42.138;24.746;2022-12-19T23:10:03;101884.78;;;2.59;80.03
4745;BME280;2386;42.138;24.746;2022-12-19T23:12:28;101892.78;;;2.81;78.09
4745;BME280;2386;42.138;24.746;2022-12-19T23:14:54;101872.69;;;2.76;79.04
4745;BME280;2386;42.138;24.746;2022-12-19T23:17:19;101886.34;;;2.73;79.28
4745;BME280;2386;42.138;24.746;2022-12-19T23:19:45;101893.88;;;2.79;80.60
4745;BME280;2386;42.138;24.746;2022-12-19T23:25:41;101891.47;;;2.64;79.98
4745;BME280;2386;42.138;24.746;2022-12-19T23:28:07;101888.53;;;2.68;81.58
4745;BME280;2386;42.138;24.746;2022-12-19T23:30:34;101904.84;;;2.76;79.83
4745;BME280;2386;42.138;24.746;2022-12-19T23:33:00;101908.00;;;2.92;78.69
4745;BME280;2386;42.138;24.746;2022-12-19T23:35:26;101910.53;;;2.93;79.35
4745;BME280;2386;42.138;24.746;2022-12-19T23:37:52;101909.09;;;2.89;78.00
4745;BME280;2386;42.138;24.746;2022-12-19T23:40:17;101904.28;;;3.04;79.67
4745;BME280;2386;42.138;24.746;2022-12-19T23:42:43;101912.34;;;3.36;76.50
4745;BME280;2386;42.138;24.746;2022-12-19T23:45:09;101904.28;;;3.04;77.35
4745;BME280;2386;42.138;24.746;2022-12-19T23:47:35;101907.69;;;3.06;79.02
4745;BME280;2386;42.138;24.746;2022-12-19T23:50:00;101905.72;;;3.08;77.72
4745;BME280;2386;42.138;24.746;2022-12-19T23:52:25;101909.38;;;3.07;76.42
4745;BME280;2386;42.138;24.746;2022-12-19T23:54:51;101908.78;;;3.04;78.64
4745;BME280;2386;42.138;24.746;2022-12-19T23:57:16;101912.97;;;2.96;77.81